createdAt,value
2023-05-14T00:02:08.258Z,12.20
2023-05-14T00:04:36.924Z,11.70
2023-05-14T00:07:06.715Z,11.60
2023-05-14T00:09:35.538Z,12.00
2023-05-14T00:12:04.624Z,12.20
2023-05-14T00:14:33.453Z,11.40
2023-05-14T00:17:02.467Z,11.10
2023-05-14T00:19:31.151Z,11.00
2023-05-14T00:21:59.837Z,10.60
2023-05-14T00:24:28.589Z,11.00
2023-05-14T00:26:57.143Z,11.00
2023-05-14T00:29:25.999Z,10.50
2023-05-14T00:31:54.632Z,10.30
2023-05-14T00:34:23.243Z,11.20
2023-05-14T00:36:52.269Z,11.20
2023-05-14T00:39:21.038Z,11.90
2023-05-14T00:41:49.559Z,11.00
2023-05-14T00:44:18.187Z,11.80
2023-05-14T00:46:47.138Z,11.30
2023-05-14T00:49:16.281Z,10.90
2023-05-14T00:51:46.408Z,10.80
2023-05-14T00:54:15.875Z,11.10
2023-05-14T00:56:46.487Z,10.50
2023-05-14T00:59:15.230Z,11.20
2023-05-14T01:01:44.108Z,10.20
2023-05-14T01:04:13.300Z,9.30
2023-05-14T01:06:52.188Z,9.20
2023-05-14T01:09:29.600Z,8.60
2023-05-14T01:12:04.758Z,9.50
2023-05-14T01:14:41.194Z,8.80
2023-05-14T01:17:12.807Z,9.50
2023-05-14T01:19:43.196Z,8.30
2023-05-14T01:22:12.086Z,8.60
2023-05-14T01:24:40.906Z,8.80
2023-05-14T01:27:16.849Z,8.80
2023-05-14T01:29:53.332Z,8.90
2023-05-14T01:32:25.402Z,8.40
2023-05-14T01:34:56.752Z,8.50
2023-05-14T01:37:25.896Z,8.70
2023-05-14T01:39:57.439Z,9.40
2023-05-14T01:42:26.813Z,8.10
2023-05-14T01:44:55.916Z,8.40
2023-05-14T01:47:24.649Z,7.90
2023-05-14T01:49:53.307Z,8.50
2023-05-14T01:52:21.839Z,8.50
2023-05-14T01:54:50.713Z,8.20
2023-05-14T01:57:19.542Z,8.10
2023-05-14T01:59:48.173Z,8.20
2023-05-14T02:02:16.833Z,8.60
2023-05-14T02:04:46.424Z,9.20
2023-05-14T02:07:15.077Z,9.10
2023-05-14T02:09:43.746Z,9.50
2023-05-14T02:12:12.478Z,9.90
2023-05-14T02:14:41.127Z,10.30
2023-05-14T02:17:09.729Z,9.20
2023-05-14T02:19:38.363Z,9.40
2023-05-14T02:22:07.879Z,10.10
2023-05-14T02:24:36.526Z,10.30
2023-05-14T02:27:06.179Z,9.90
2023-05-14T02:29:34.802Z,10.50
2023-05-14T02:32:03.792Z,9.80
2023-05-14T02:34:33.735Z,10.30
2023-05-14T02:37:02.503Z,10.30
2023-05-14T02:39:33.349Z,10.20
2023-05-14T02:42:02.870Z,9.20
2023-05-14T02:44:31.871Z,10.40
2023-05-14T02:47:00.547Z,9.90
2023-05-14T02:49:29.303Z,9.50
2023-05-14T02:52:00.223Z,10.00
2023-05-14T02:54:28.941Z,10.50
2023-05-14T02:56:57.531Z,10.20
2023-05-14T02:59:26.452Z,10.40
2023-05-14T03:01:55.806Z,10.70
2023-05-14T03:04:25.210Z,10.20
2023-05-14T03:06:54.006Z,9.60
2023-05-14T03:09:22.682Z,9.30
2023-05-14T03:11:51.605Z,8.90
2023-05-14T03:14:20.235Z,9.50
2023-05-14T03:16:49.401Z,10.60
2023-05-14T03:19:18.111Z,11.00
2023-05-14T03:21:46.668Z,10.20
2023-05-14T03:24:15.179Z,9.30
2023-05-14T03:26:46.238Z,10.00
2023-05-14T03:29:17.372Z,9.90
2023-05-14T03:31:46.564Z,10.30
2023-05-14T03:34:15.260Z,11.10
2023-05-14T03:36:44.174Z,10.20
2023-05-14T03:39:14.940Z,11.30
2023-05-14T03:41:43.559Z,10.80
2023-05-14T03:44:12.197Z,10.40
2023-05-14T03:46:40.885Z,11.30
2023-05-14T03:49:09.583Z,11.10
2023-05-14T03:51:39.114Z,10.80
2023-05-14T03:54:07.823Z,10.20
2023-05-14T03:56:36.420Z,10.30
2023-05-14T03:59:05.162Z,10.40
2023-05-14T04:01:33.877Z,10.60
2023-05-14T04:04:02.516Z,10.10
2023-05-14T04:06:31.344Z,11.00
2023-05-14T04:08:59.960Z,10.80
2023-05-14T04:11:29.103Z,9.90
2023-05-14T04:13:57.695Z,9.70
2023-05-14T04:16:26.418Z,9.00
2023-05-14T04:18:55.092Z,9.20
2023-05-14T04:21:23.719Z,8.60
2023-05-14T04:23:52.282Z,9.60
2023-05-14T04:26:21.517Z,8.80
2023-05-14T04:28:50.138Z,8.90
2023-05-14T04:31:18.730Z,8.90
2023-05-14T04:33:47.618Z,10.10
2023-05-14T04:36:16.180Z,9.20
2023-05-14T04:38:45.874Z,8.60
2023-05-14T04:41:14.534Z,8.50
2023-05-14T04:43:43.220Z,8.80
2023-05-14T04:46:13.335Z,9.40
2023-05-14T04:48:42.090Z,9.40
2023-05-14T04:51:10.685Z,9.70
2023-05-14T04:53:39.295Z,9.40
2023-05-14T04:56:08.218Z,9.40
2023-05-14T04:58:37.099Z,9.40
2023-05-14T05:01:06.229Z,10.50
2023-05-14T05:03:35.102Z,10.30
2023-05-14T05:06:03.932Z,9.40
2023-05-14T05:08:32.528Z,10.80
2023-05-14T05:11:01.212Z,10.40
2023-05-14T05:13:29.783Z,10.70
2023-05-14T05:15:58.592Z,10.00
2023-05-14T05:18:27.328Z,10.20
2023-05-14T05:20:55.900Z,9.30
2023-05-14T05:23:24.579Z,10.30
2023-05-14T05:25:53.158Z,10.80
2023-05-14T05:28:21.766Z,10.50
2023-05-14T05:30:50.602Z,10.90
2023-05-14T05:33:19.298Z,10.90
2023-05-14T05:35:49.277Z,10.10
2023-05-14T05:38:37.367Z,9.80
2023-05-14T05:41:35.654Z,9.80
2023-05-14T05:44:18.733Z,10.20
2023-05-14T05:47:02.845Z,9.90
2023-05-14T05:49:52.096Z,9.90
2023-05-14T05:52:57.446Z,9.50
2023-05-14T05:55:30.657Z,10.00
2023-05-14T05:57:59.253Z,10.90
2023-05-14T06:00:41.830Z,10.80
2023-05-14T06:03:30.478Z,11.50
2023-05-14T06:06:19.576Z,12.40
2023-05-14T06:09:06.847Z,10.10
2023-05-14T06:11:55.923Z,11.40
2023-05-14T06:14:42.624Z,11.20
2023-05-14T06:17:32.650Z,11.30
2023-05-14T06:20:13.765Z,10.80
2023-05-14T06:23:12.308Z,11.40
2023-05-14T06:25:50.105Z,11.20
2023-05-14T06:28:32.582Z,12.10
2023-05-14T06:31:21.625Z,11.40
2023-05-14T06:34:22.122Z,12.00
2023-05-14T06:37:17.585Z,11.80
2023-05-14T06:40:16.406Z,11.60
2023-05-14T06:43:21.655Z,11.10
2023-05-14T06:46:16.488Z,11.70
2023-05-14T06:49:03.148Z,11.30
2023-05-14T06:51:46.151Z,10.30
2023-05-14T06:54:28.667Z,12.60
2023-05-14T06:57:07.663Z,13.40
2023-05-14T06:59:43.445Z,13.10
2023-05-14T07:02:26.673Z,12.80
2023-05-14T07:05:23.464Z,12.30
2023-05-14T07:08:16.154Z,12.30
2023-05-14T07:11:14.304Z,13.10
2023-05-14T07:14:09.002Z,12.40
2023-05-14T07:16:57.705Z,12.50
2023-05-14T07:19:49.956Z,12.80
2023-05-14T07:22:28.579Z,12.80
2023-05-14T07:25:23.727Z,12.70
2023-05-14T07:27:58.376Z,12.60
2023-05-14T07:30:37.719Z,12.40
2023-05-14T07:33:30.242Z,12.30
2023-05-14T07:36:05.306Z,12.10
2023-05-14T07:38:42.390Z,12.40
2023-05-14T07:41:11.589Z,11.30
2023-05-14T07:43:40.350Z,12.40
2023-05-14T07:46:09.097Z,12.00
2023-05-14T07:48:37.745Z,12.70
2023-05-14T07:51:06.479Z,11.40
2023-05-14T07:53:35.196Z,11.20
2023-05-14T07:56:03.963Z,13.30
2023-05-14T07:58:32.532Z,11.90
2023-05-14T08:01:03.308Z,11.10
2023-05-14T08:03:31.962Z,13.20
2023-05-14T08:06:00.614Z,13.50
2023-05-14T08:08:29.282Z,14.60
2023-05-14T08:10:59.216Z,14.00
2023-05-14T08:13:27.762Z,14.80
2023-05-14T08:15:56.412Z,13.80
2023-05-14T08:18:25.109Z,13.80
2023-05-14T08:20:53.750Z,13.00
2023-05-14T08:23:22.437Z,13.50
2023-05-14T08:25:51.042Z,13.80
2023-05-14T08:28:19.721Z,13.30
2023-05-14T08:30:48.457Z,13.30
2023-05-14T08:33:17.500Z,11.50
2023-05-14T08:35:46.070Z,13.70
2023-05-14T08:38:14.773Z,13.80
2023-05-14T08:40:46.879Z,12.70
2023-05-14T08:43:20.060Z,11.40
2023-05-14T08:45:53.067Z,11.60
2023-05-14T08:48:24.218Z,11.10
2023-05-14T08:50:53.229Z,12.30
2023-05-14T08:53:21.995Z,10.80
2023-05-14T08:55:52.302Z,10.20
2023-05-14T08:58:20.945Z,12.40
2023-05-14T09:00:50.229Z,13.90
2023-05-14T09:03:19.096Z,14.50
2023-05-14T09:05:48.928Z,15.60
2023-05-14T09:08:18.269Z,15.00
2023-05-14T09:10:46.831Z,15.60
2023-05-14T09:13:15.843Z,15.60
2023-05-14T09:15:45.658Z,16.30
2023-05-14T09:18:14.393Z,11.20
2023-05-14T09:20:43.080Z,12.00
2023-05-14T09:23:11.695Z,11.10
2023-05-14T09:25:40.366Z,11.40
2023-05-14T09:28:09.965Z,10.60
2023-05-14T09:30:38.766Z,10.40
2023-05-14T09:33:09.833Z,9.70
2023-05-14T09:35:39.688Z,10.80
2023-05-14T09:38:08.996Z,11.70
2023-05-14T09:40:38.217Z,8.90
2023-05-14T09:43:06.823Z,8.00
2023-05-14T09:45:36.246Z,9.20
2023-05-14T09:48:05.806Z,8.50
2023-05-14T09:50:42.686Z,8.10
2023-05-14T09:53:11.449Z,8.00
2023-05-14T09:55:41.025Z,8.00
2023-05-14T09:58:09.684Z,6.40
2023-05-14T10:00:38.627Z,6.70
2023-05-14T10:03:08.130Z,5.80
2023-05-14T10:05:39.913Z,7.40
2023-05-14T10:08:14.931Z,7.30
2023-05-14T10:10:43.682Z,7.00
2023-05-14T10:13:14.752Z,6.70
2023-05-14T10:15:47.818Z,6.80
2023-05-14T10:18:19.533Z,6.30
2023-05-14T10:20:53.052Z,6.10
2023-05-14T10:23:30.687Z,5.60
2023-05-14T10:26:24.167Z,5.70
2023-05-14T10:29:21.650Z,5.50
2023-05-14T10:32:38.986Z,5.50
2023-05-14T10:35:46.738Z,4.90
2023-05-14T10:39:04.871Z,6.10
2023-05-14T10:42:21.854Z,5.40
2023-05-14T10:45:31.988Z,5.40
2023-05-14T10:48:39.932Z,4.90
2023-05-14T10:51:37.235Z,5.80
2023-05-14T10:54:17.303Z,5.80
2023-05-14T10:56:53.546Z,5.10
2023-05-14T10:59:27.349Z,4.30
2023-05-14T11:01:57.538Z,4.90
2023-05-14T11:04:28.310Z,4.80
2023-05-14T11:06:58.101Z,5.00
2023-05-14T11:09:27.160Z,5.00
2023-05-14T11:11:55.725Z,5.40
2023-05-14T11:14:24.523Z,5.70
2023-05-14T11:16:53.274Z,5.70
2023-05-14T11:19:22.309Z,6.20
2023-05-14T11:21:50.939Z,6.40
2023-05-14T11:24:19.595Z,6.30
2023-05-14T11:26:48.211Z,6.30
2023-05-14T11:29:16.872Z,6.50
2023-05-14T11:31:45.967Z,7.10
2023-05-14T11:34:14.634Z,6.00
2023-05-14T11:36:43.338Z,6.00
2023-05-14T11:39:18.862Z,5.90
2023-05-14T11:41:47.506Z,5.90
2023-05-14T11:44:17.013Z,5.60
2023-05-14T11:46:55.787Z,5.90
2023-05-14T11:49:25.097Z,5.60
2023-05-14T11:51:58.662Z,5.50
2023-05-14T11:54:28.540Z,5.00
2023-05-14T11:56:58.336Z,5.90
2023-05-14T11:59:30.989Z,6.10
2023-05-14T12:02:00.120Z,5.60
2023-05-14T12:04:29.527Z,5.90
2023-05-14T12:07:00.339Z,6.10
2023-05-14T12:09:28.939Z,6.10
2023-05-14T12:12:07.534Z,6.10
2023-05-14T12:14:38.510Z,6.10
2023-05-14T12:17:13.008Z,6.90
2023-05-14T12:19:42.533Z,6.10
2023-05-14T12:22:13.560Z,6.20
2023-05-14T12:24:43.812Z,5.30
2023-05-14T12:27:12.652Z,5.60
2023-05-14T12:29:42.934Z,6.10
2023-05-14T12:32:14.314Z,5.90
2023-05-14T12:34:42.959Z,5.10
2023-05-14T12:37:11.537Z,5.10
2023-05-14T12:39:40.162Z,5.10
2023-05-14T12:42:08.865Z,5.00
2023-05-14T12:44:37.528Z,4.80
2023-05-14T12:47:07.055Z,4.80
2023-05-14T12:49:35.948Z,5.70
2023-05-14T12:52:22.786Z,4.90
2023-05-14T12:54:54.963Z,4.90
2023-05-14T12:57:23.590Z,4.40
2023-05-14T12:59:52.193Z,4.70
2023-05-14T13:02:21.321Z,4.80
2023-05-14T13:04:49.985Z,4.80
2023-05-14T13:07:18.563Z,4.90
2023-05-14T13:09:47.146Z,4.30
2023-05-14T13:12:15.701Z,4.80
2023-05-14T13:14:44.230Z,4.60
2023-05-14T13:17:12.819Z,4.60
2023-05-14T13:19:41.361Z,4.60
2023-05-14T13:22:09.897Z,4.90
2023-05-14T13:24:46.173Z,5.00
2023-05-14T13:27:16.630Z,4.50
2023-05-14T13:30:08.814Z,4.30
2023-05-14T13:33:13.978Z,4.50
2023-05-14T13:35:59.344Z,4.80
2023-05-14T13:38:58.287Z,4.80
2023-05-14T13:41:44.184Z,4.10
2023-05-14T13:44:30.645Z,4.00
2023-05-14T13:47:32.777Z,3.90
2023-05-14T13:50:26.254Z,3.30
2023-05-14T13:53:41.370Z,3.80
2023-05-14T13:56:52.719Z,3.90
2023-05-14T13:59:23.330Z,4.00
2023-05-14T14:01:52.820Z,4.10
2023-05-14T14:04:23.612Z,3.70
2023-05-14T14:06:52.159Z,4.20
2023-05-14T14:09:20.960Z,3.90
2023-05-14T14:11:50.100Z,4.00
2023-05-14T14:14:19.397Z,4.00
2023-05-14T14:16:48.056Z,4.00
2023-05-14T14:19:18.412Z,3.70
2023-05-14T14:21:47.399Z,3.70
2023-05-14T14:24:16.040Z,4.10
2023-05-14T14:26:44.685Z,3.80
2023-05-14T14:29:13.428Z,4.30
2023-05-14T14:31:42.889Z,3.70
2023-05-14T14:34:11.698Z,4.20
2023-05-14T14:36:40.330Z,3.90
2023-05-14T14:39:08.852Z,4.30
2023-05-14T14:41:37.487Z,4.40
2023-05-14T14:44:06.221Z,3.90
2023-05-14T14:46:35.183Z,4.00
2023-05-14T14:49:04.488Z,3.80
2023-05-14T14:51:33.164Z,4.10
2023-05-14T14:54:01.741Z,3.90
2023-05-14T14:56:31.081Z,3.90
2023-05-14T14:59:01.257Z,4.40
2023-05-14T15:01:30.059Z,3.90
2023-05-14T15:03:58.639Z,3.90
2023-05-14T15:06:27.775Z,4.00
2023-05-14T15:08:56.483Z,3.80
2023-05-14T15:11:25.892Z,4.30
2023-05-14T15:13:54.614Z,4.30
2023-05-14T15:16:23.186Z,4.40
2023-05-14T15:18:51.981Z,4.40
2023-05-14T15:21:20.877Z,4.30
2023-05-14T15:23:49.477Z,4.60
2023-05-14T15:26:18.024Z,4.30
2023-05-14T15:28:46.594Z,4.30
2023-05-14T15:31:15.573Z,4.50
2023-05-14T15:33:44.246Z,4.90
2023-05-14T15:36:20.990Z,4.50
2023-05-14T15:38:49.616Z,4.30
2023-05-14T15:41:18.241Z,4.40
2023-05-14T15:43:46.838Z,4.70
2023-05-14T15:46:15.553Z,4.50
2023-05-14T15:48:44.105Z,4.60
2023-05-14T15:51:13.642Z,5.00
2023-05-14T15:53:42.278Z,5.00
2023-05-14T15:56:11.283Z,5.00
2023-05-14T15:58:40.269Z,5.10
2023-05-14T16:01:09.124Z,5.80
2023-05-14T16:03:37.913Z,5.80
2023-05-14T16:06:07.362Z,5.50
2023-05-14T16:08:36.009Z,4.70
2023-05-14T16:11:05.642Z,5.30
2023-05-14T16:13:35.242Z,5.80
2023-05-14T16:16:04.296Z,5.00
2023-05-14T16:18:33.886Z,4.60
2023-05-14T16:21:03.015Z,4.50
2023-05-14T16:23:31.747Z,4.90
2023-05-14T16:26:00.869Z,5.00
2023-05-14T16:28:32.998Z,4.90
2023-05-14T16:31:03.694Z,4.90
2023-05-14T16:33:48.066Z,4.30
2023-05-14T16:36:42.577Z,4.60
2023-05-14T16:39:23.362Z,4.80
2023-05-14T16:42:16.641Z,5.20
2023-05-14T16:45:11.173Z,5.40
2023-05-14T16:47:49.923Z,5.40
2023-05-14T16:50:57.779Z,5.10
2023-05-14T16:53:27.008Z,4.60
2023-05-14T16:55:59.604Z,5.00
2023-05-14T16:58:33.193Z,5.60
2023-05-14T17:01:23.265Z,4.80
2023-05-14T17:03:52.772Z,5.60
2023-05-14T17:06:24.204Z,5.30
2023-05-14T17:09:03.913Z,5.40
2023-05-14T17:11:45.899Z,5.60
2023-05-14T17:14:22.215Z,5.30
2023-05-14T17:16:52.575Z,6.10
2023-05-14T17:19:32.321Z,6.30
2023-05-14T17:22:10.931Z,8.00
2023-05-14T17:24:53.901Z,8.20
2023-05-14T17:27:22.612Z,5.30
2023-05-14T17:29:51.233Z,4.50
2023-05-14T17:32:20.507Z,4.10
2023-05-14T17:34:49.248Z,5.00
2023-05-14T17:37:17.900Z,6.50
2023-05-14T17:39:46.709Z,5.80
2023-05-14T17:42:16.155Z,4.90
2023-05-14T17:45:06.371Z,3.80
2023-05-14T17:47:46.288Z,3.90
2023-05-14T17:50:25.680Z,3.40
2023-05-14T17:53:12.734Z,3.60
2023-05-14T17:55:43.958Z,4.60
2023-05-14T17:58:27.663Z,3.50
2023-05-14T18:01:07.015Z,3.90
2023-05-14T18:03:38.582Z,5.30
2023-05-14T18:06:20.163Z,5.00
2023-05-14T18:09:05.251Z,4.70
2023-05-14T18:11:46.689Z,5.20
2023-05-14T18:14:25.248Z,4.70
2023-05-14T18:17:03.180Z,4.90
2023-05-14T18:19:37.641Z,5.10
2023-05-14T18:22:06.627Z,6.40
2023-05-14T18:24:35.322Z,6.80
2023-05-14T18:27:04.288Z,7.00
2023-05-14T18:29:33.104Z,7.60
2023-05-14T18:32:02.491Z,6.70
2023-05-14T18:34:33.620Z,7.00
2023-05-14T18:37:08.333Z,7.20
2023-05-14T18:39:41.134Z,6.10
2023-05-14T18:42:16.349Z,6.20
2023-05-14T18:44:49.820Z,6.10
2023-05-14T18:47:21.218Z,6.40
2023-05-14T18:49:57.725Z,6.40
2023-05-14T18:52:36.590Z,6.30
2023-05-14T18:55:09.939Z,6.00
2023-05-14T18:57:43.957Z,6.50
2023-05-14T19:00:15.059Z,7.00
2023-05-14T19:02:44.521Z,7.10
2023-05-14T19:05:13.285Z,7.00
2023-05-14T19:07:43.579Z,15.00
2023-05-14T19:10:23.308Z,12.30
2023-05-14T19:12:55.388Z,10.00
2023-05-14T19:15:25.789Z,16.10
2023-05-14T19:17:55.901Z,8.90
2023-05-14T19:20:26.181Z,7.30
2023-05-14T19:22:54.880Z,6.60
2023-05-14T19:25:23.882Z,7.80
2023-05-14T19:27:55.588Z,7.40
2023-05-14T19:30:26.715Z,9.00
2023-05-14T19:32:55.748Z,8.60
2023-05-14T19:35:27.645Z,6.90
2023-05-14T19:38:06.851Z,9.00
2023-05-14T19:40:36.435Z,8.80
2023-05-14T19:43:05.718Z,8.00
2023-05-14T19:45:38.484Z,8.00
2023-05-14T19:50:41.021Z,6.80
2023-05-14T19:53:11.162Z,6.90
2023-05-14T19:55:41.565Z,7.50
2023-05-14T19:58:13.292Z,6.90
2023-05-14T20:00:46.648Z,6.90
2023-05-14T20:03:15.259Z,7.80
2023-05-14T20:05:45.146Z,7.60
2023-05-14T20:08:13.755Z,8.10
2023-05-14T20:10:43.965Z,7.80
2023-05-14T20:13:12.719Z,8.10
2023-05-14T20:15:42.085Z,7.90
2023-05-14T20:18:10.763Z,7.80
2023-05-14T20:20:39.780Z,7.90
2023-05-14T20:23:08.469Z,8.80
2023-05-14T20:25:37.154Z,8.70
2023-05-14T20:28:05.854Z,9.00
2023-05-14T20:30:34.432Z,8.50
2023-05-14T20:33:03.297Z,8.60
2023-05-14T20:35:31.927Z,8.50
2023-05-14T20:38:04.735Z,9.70
2023-05-14T20:40:33.438Z,11.40
2023-05-14T20:43:01.982Z,11.50
2023-05-14T20:45:31.053Z,9.50
2023-05-14T20:48:02.137Z,8.50
2023-05-14T20:50:30.801Z,11.70
2023-05-14T20:52:59.352Z,11.30
2023-05-14T20:55:28.171Z,11.30
2023-05-14T20:57:56.758Z,10.80
2023-05-14T21:00:25.906Z,10.30
2023-05-14T21:02:54.631Z,9.70
2023-05-14T21:05:23.561Z,9.80
2023-05-14T21:07:52.664Z,9.50
2023-05-14T21:10:21.233Z,8.90
2023-05-14T21:12:49.807Z,9.10
2023-05-14T21:15:18.679Z,9.90
2023-05-14T21:17:47.296Z,9.80
2023-05-14T21:20:18.788Z,10.10
2023-05-14T21:22:47.419Z,10.60
2023-05-14T21:25:16.142Z,9.70
2023-05-14T21:27:44.746Z,10.50
2023-05-14T21:30:15.057Z,10.30
2023-05-14T21:32:43.674Z,10.00
2023-05-14T21:35:12.601Z,9.70
2023-05-14T21:37:41.232Z,10.10
2023-05-14T21:40:12.657Z,10.40
2023-05-14T21:42:41.308Z,10.60
2023-05-14T21:45:11.108Z,10.70
2023-05-14T21:47:39.938Z,11.40
2023-05-14T21:50:10.166Z,12.80
2023-05-14T21:52:38.850Z,12.60
2023-05-14T21:55:08.632Z,11.20
2023-05-14T21:57:37.282Z,12.60
2023-05-14T22:00:11.803Z,11.80
2023-05-14T22:02:41.399Z,10.00
2023-05-14T22:05:10.408Z,10.20
2023-05-14T22:07:39.044Z,10.40
2023-05-14T22:10:08.840Z,10.00
2023-05-14T22:12:37.462Z,10.70
2023-05-14T22:15:08.368Z,11.60
2023-05-14T22:17:37.340Z,12.00
2023-05-14T22:20:09.486Z,10.50
2023-05-14T22:25:07.284Z,10.40
2023-05-14T22:27:35.835Z,10.30
2023-05-14T22:30:05.940Z,9.80
2023-05-14T22:32:34.549Z,9.10
2023-05-14T22:35:03.408Z,10.00
2023-05-14T22:37:32.039Z,8.20
2023-05-14T22:40:01.588Z,9.00
2023-05-14T22:42:30.269Z,8.00
2023-05-14T22:44:58.849Z,9.30
2023-05-14T22:47:27.574Z,8.10
2023-05-14T22:49:56.219Z,7.90
2023-05-14T22:52:25.247Z,7.30
2023-05-14T22:54:53.975Z,8.00
2023-05-14T22:57:22.622Z,7.40
2023-05-14T22:59:51.399Z,7.10
2023-05-14T23:02:19.931Z,7.90
2023-05-14T23:04:48.713Z,7.90
2023-05-14T23:07:17.353Z,7.80
2023-05-14T23:09:46.071Z,7.60
2023-05-14T23:12:14.636Z,7.70
2023-05-14T23:14:43.216Z,8.00
2023-05-14T23:17:12.205Z,6.80
2023-05-14T23:19:40.899Z,7.20
2023-05-14T23:22:09.660Z,6.90
2023-05-14T23:24:38.331Z,6.70
2023-05-14T23:27:07.332Z,6.10
2023-05-14T23:29:35.865Z,6.70
2023-05-14T23:32:04.940Z,6.90
2023-05-14T23:34:34.388Z,5.50
2023-05-14T23:37:03.102Z,6.00
2023-05-14T23:39:32.260Z,6.10
2023-05-14T23:42:00.808Z,6.30
2023-05-14T23:44:29.409Z,6.50
2023-05-14T23:46:58.912Z,5.90
2023-05-14T23:49:27.518Z,6.50
2023-05-14T23:51:56.293Z,6.10
2023-05-14T23:54:24.870Z,6.20
2023-05-14T23:56:53.522Z,6.20
2023-05-14T23:59:22.212Z,5.80
